Portada
METAR-TAF:

METAR-TAF

Aeropuertos :

Matam, Senegal

latitud: 15-39N, longitud: 013-15W, altitud: 15 m

Observación

El informe se hizo hace 1 hora y 6 minutos, a las 12:00 UTC
Viento 2 kt del oeste-suroeste
Temperatura 34°C
Humedad 60%
Presión 1012 hPa
Visibilidad 10 km o más
sin nubes por debajo de 1500 m y sin presencia de cumulonimbus.

METAR: GOSM 141200Z 24002KT CAVOK 34/25 Q1012

Hora: 13:06 (13:06 UTC)


TAF: falta

Observaciones y pronósticos meteorológicos de más de 4000 aeropuertos (mensajes METAR y TAF).

Los puntos amarillos y rojos representan las estaciones disponibles.

Ponga el ratón en el punto deseado para ver el nombre de la estación.

Haga clic para ver las observaciones y los pronósticos meteorológicos.

Para cambiar el mapa : haga clic en los botones verdes con una cruz de color negro para hacer un zoom, en el botón verde con un guión para alejar o en las flechas verdes para mapas adyacentes.


METAR-TAF: